createdAt,value
2023-01-12T00:00:24.928Z,99999.9
2023-01-12T00:06:00.397Z,99994
2023-01-12T00:11:35.848Z,99983.4
2023-01-12T00:17:10.903Z,99981.1
2023-01-12T00:22:46.102Z,99981
2023-01-12T00:28:21.318Z,99983.8
2023-01-12T00:33:56.914Z,99963.2
2023-01-12T00:39:32.606Z,99932.4
2023-01-12T00:45:08.340Z,99930.8
2023-01-12T00:50:44.831Z,99929.5
2023-01-12T00:56:21.124Z,99922.1
2023-01-12T01:01:56.984Z,99909.9
2023-01-12T01:07:33.025Z,99904.4
2023-01-12T01:13:08.305Z,99896.9
2023-01-12T01:18:43.702Z,99895.8
2023-01-12T01:24:19.389Z,99887.8
2023-01-12T01:29:55.913Z,99882
2023-01-12T01:35:31.414Z,99877
2023-01-12T01:41:07.044Z,99871.6
2023-01-12T01:46:42.995Z,99876.5
2023-01-12T01:52:19.190Z,99881.6
2023-01-12T01:57:54.048Z,99875.9
2023-01-12T02:03:37.010Z,99872.9
2023-01-12T02:09:12.539Z,99876.3
2023-01-12T02:14:48.064Z,99871.7
2023-01-12T02:20:25.766Z,99862.3
2023-01-12T02:26:01.559Z,99855.8
2023-01-12T02:31:37.991Z,99858.1
2023-01-12T02:37:14.662Z,99852.2
2023-01-12T02:42:51.185Z,99850.7
2023-01-12T02:48:26.329Z,99853.3
2023-01-12T02:54:02.172Z,99854.9
2023-01-12T02:59:44.986Z,99859
2023-01-12T03:05:20.335Z,99857.5
2023-01-12T03:10:55.721Z,99863.5
2023-01-12T03:16:33.093Z,99856.1
2023-01-12T03:22:08.471Z,99863.2
2023-01-12T03:27:43.460Z,99852.5
2023-01-12T03:33:18.795Z,99858.2
2023-01-12T03:38:53.962Z,99861.3
2023-01-12T03:44:29.826Z,99854.8
2023-01-12T03:50:05.188Z,99842.2
2023-01-12T03:55:41.575Z,99829.6
2023-01-12T04:01:17.162Z,99831.7
2023-01-12T04:06:54.970Z,99834.9
2023-01-12T04:12:30.311Z,99838.3
2023-01-12T04:18:05.643Z,99840
2023-01-12T04:23:40.929Z,99831.6
2023-01-12T04:29:16.320Z,99832.2
2023-01-12T04:34:52.820Z,99830.2
2023-01-12T04:40:28.083Z,99822.9
2023-01-12T04:46:04.585Z,99816.2
2023-01-12T04:51:40.426Z,99809.5
2023-01-12T04:57:15.738Z,99806.1
2023-01-12T05:02:50.799Z,99798.3
2023-01-12T05:08:25.815Z,99783.1
2023-01-12T05:14:01.056Z,99763.6
2023-01-12T05:19:36.022Z,99759.9
2023-01-12T05:25:11.260Z,99745.1
2023-01-12T05:30:46.598Z,99735.1
2023-01-12T05:36:26.906Z,99734.2
2023-01-12T05:42:02.265Z,99731.8
2023-01-12T05:47:37.748Z,99729.5
2023-01-12T05:53:13.033Z,99719.2
2023-01-12T05:58:49.072Z,99725.4
2023-01-12T06:04:25.085Z,99720.8
2023-01-12T06:10:01.098Z,99715.5
2023-01-12T06:15:37.013Z,99710.5
2023-01-12T06:21:12.830Z,99708.5
2023-01-12T06:26:48.218Z,99699.2
2023-01-12T06:32:23.459Z,99694.9
2023-01-12T06:37:59.593Z,99704.5
2023-01-12T06:43:34.390Z,99708.4
2023-01-12T06:49:09.290Z,99723.8
2023-01-12T06:54:45.620Z,99744.1
2023-01-12T07:00:20.807Z,99731.1
2023-01-12T07:05:55.919Z,99730.4
2023-01-12T07:11:32.953Z,99714.5
2023-01-12T07:17:08.153Z,99722.5
2023-01-12T07:22:43.504Z,99725.2
2023-01-12T07:28:18.829Z,99715.9
2023-01-12T07:33:54.205Z,99708.8
2023-01-12T07:39:30.155Z,99712.4
2023-01-12T07:45:05.444Z,99717.7
2023-01-12T07:50:44.645Z,99714.4
2023-01-12T07:57:06.647Z,99720.6
2023-01-12T08:02:48.064Z,99742.9
2023-01-12T08:08:23.393Z,99741.9
2023-01-12T08:13:58.609Z,99729.5
2023-01-12T08:19:34.721Z,99722.8
2023-01-12T08:25:15.542Z,99728.1
2023-01-12T08:30:56.961Z,99737.2
2023-01-12T08:36:34.120Z,99734.6
2023-01-12T08:42:20.679Z,99734.6
2023-01-12T08:47:56.755Z,99732.6
2023-01-12T08:53:33.121Z,99717.3
2023-01-12T08:59:10.136Z,99713.9
2023-01-12T09:04:46.036Z,99715.1
2023-01-12T09:10:21.724Z,99720.1
2023-01-12T09:16:14.224Z,99723.1
2023-01-12T09:21:50.257Z,99728.4
2023-01-12T09:27:25.886Z,99729.8
2023-01-12T09:33:01.243Z,99715.2
2023-01-12T09:38:36.420Z,99714.1
2023-01-12T09:44:30.979Z,99709.4
2023-01-12T09:50:12.649Z,99704.7
2023-01-12T09:55:56.656Z,99701
2023-01-12T10:01:32.647Z,99697.1
2023-01-12T10:07:07.940Z,99684.3
2023-01-12T10:13:07.129Z,99684.3
2023-01-12T10:18:42.663Z,99680.5
2023-01-12T10:24:23.315Z,99689.8
2023-01-12T10:29:59.054Z,99696.7
2023-01-12T10:35:34.815Z,99691.8
2023-01-12T10:41:11.714Z,99682.8
2023-01-12T10:46:48.660Z,99672.5
2023-01-12T10:52:27.171Z,99669
2023-01-12T10:58:02.606Z,99663.3
2023-01-12T11:03:38.953Z,99654.4
2023-01-12T11:09:16.819Z,99647
2023-01-12T11:14:54.556Z,99633.8
2023-01-12T11:20:33.331Z,99617.6
2023-01-12T11:26:09.170Z,99610
2023-01-12T11:31:47.179Z,99607.5
2023-01-12T11:37:23.523Z,99603.4
2023-01-12T11:42:59.112Z,99595.7
2023-01-12T11:48:57.146Z,99588.3
2023-01-12T11:54:30.204Z,99568.9
2023-01-12T12:00:05.829Z,99572.3
2023-01-12T12:05:42.327Z,99562.8
2023-01-12T12:11:18.752Z,99547.7
2023-01-12T12:16:55.115Z,99535
2023-01-12T12:23:01.203Z,99529.1
2023-01-12T12:28:36.491Z,99518.1
2023-01-12T12:34:11.510Z,99516.5
2023-01-12T12:39:50.779Z,99515.5
2023-01-12T12:45:25.995Z,99515.9
2023-01-12T12:51:01.718Z,99503.9
2023-01-12T12:56:36.779Z,99488.9
2023-01-12T13:02:33.907Z,99484.9
2023-01-12T13:08:12.563Z,99472.1
2023-01-12T13:13:47.456Z,99459.5
2023-01-12T13:19:44.242Z,99461.3
2023-01-12T13:25:21.230Z,99460.7
2023-01-12T13:31:03.470Z,99449.4
2023-01-12T13:36:39.158Z,99435
2023-01-12T13:42:17.208Z,99424.5
2023-01-12T13:48:14.719Z,99406.4
2023-01-12T13:53:51.353Z,99396
2023-01-12T13:59:26.810Z,99394.9
2023-01-12T14:05:08.714Z,99397.3
2023-01-12T14:10:47.644Z,99386
2023-01-12T14:16:25.263Z,99392.9
2023-01-12T14:22:01.365Z,99413.9
2023-01-12T14:27:36.852Z,99412.1
2023-01-12T14:33:14.839Z,99410.8
2023-01-12T14:38:53.282Z,99408.7
2023-01-12T14:44:29.662Z,99407.9
2023-01-12T14:50:05.625Z,99404.1
2023-01-12T14:55:41.553Z,99411.4
2023-01-12T15:01:18.016Z,99416.3
2023-01-12T15:06:54.931Z,99414.9
2023-01-12T15:12:31.330Z,99426.3
2023-01-12T15:18:08.101Z,99421.6
2023-01-12T15:23:43.195Z,99413
2023-01-12T15:29:18.458Z,99401.4
2023-01-12T15:34:57.733Z,99389.8
2023-01-12T15:40:33.589Z,99388.6
2023-01-12T15:46:10.381Z,99386.4
2023-01-12T15:51:45.817Z,99367.5
2023-01-12T15:57:20.723Z,99376.5
2023-01-12T16:02:55.766Z,99378.6
2023-01-12T16:08:32.226Z,99387
2023-01-12T16:14:07.922Z,99383.7
2023-01-12T16:19:43.085Z,99373.7
2023-01-12T16:25:20.009Z,99383.5
2023-01-12T16:30:56.265Z,99395.8
2023-01-12T16:36:31.211Z,99403.4
2023-01-12T16:42:06.543Z,99395.1
2023-01-12T16:48:03.771Z,99389.9
2023-01-12T16:53:46.237Z,99387.1
2023-01-12T16:59:22.113Z,99399.5
2023-01-12T17:05:03.673Z,99409
2023-01-12T17:10:42.524Z,99409.9
2023-01-12T17:16:19.927Z,99408.5
2023-01-12T17:22:07.606Z,99411.4
2023-01-12T17:27:44.588Z,99409.1
2023-01-12T17:33:23.477Z,99423.4
2023-01-12T17:38:59.658Z,99422.1
2023-01-12T17:44:35.312Z,99437.5
2023-01-12T17:50:10.735Z,99452.9
2023-01-12T17:55:52.282Z,99472.2
2023-01-12T18:01:29.062Z,99473.6
2023-01-12T18:07:06.739Z,99471.2
2023-01-12T18:12:42.462Z,99467.3
2023-01-12T18:18:17.749Z,99460.2
2023-01-12T18:23:52.702Z,99438.1
2023-01-12T18:29:28.723Z,99435.5
2023-01-12T18:35:04.049Z,99447.2
2023-01-12T18:40:39.237Z,99450.3
2023-01-12T18:46:14.735Z,99440.1
2023-01-12T18:51:49.837Z,99431
2023-01-12T18:57:24.731Z,99427.8
2023-01-12T19:03:02.070Z,99415.9
2023-01-12T19:08:39.310Z,99416.2
2023-01-12T19:14:15.035Z,99421.2
2023-01-12T19:19:50.702Z,99419.6
2023-01-12T19:25:26.046Z,99430.7
2023-01-12T19:31:02.193Z,99425.8
2023-01-12T19:36:38.391Z,99433.5
2023-01-12T19:42:13.660Z,99434.6
2023-01-12T19:47:49.166Z,99436.2
2023-01-12T19:53:25.049Z,99421.5
2023-01-12T19:59:01.146Z,99414.1
2023-01-12T20:04:36.558Z,99413.4
2023-01-12T20:10:12.985Z,99412.2
2023-01-12T20:15:49.445Z,99409.9
2023-01-12T20:21:25.017Z,99409.4
2023-01-12T20:27:00.002Z,99400.7
2023-01-12T20:32:35.181Z,99399.9
2023-01-12T20:38:10.804Z,99414.6
2023-01-12T20:43:46.164Z,99425.3
2023-01-12T20:49:22.223Z,99433.3
2023-01-12T20:54:58.050Z,99432.3
2023-01-12T21:00:33.451Z,99439.5
2023-01-12T21:06:08.737Z,99437.4
2023-01-12T21:11:43.824Z,99452.3
2023-01-12T21:17:19.357Z,99458
2023-01-12T21:22:56.724Z,99465.6
2023-01-12T21:28:31.929Z,99464.6
2023-01-12T21:34:07.235Z,99452.4
2023-01-12T21:39:43.211Z,99456.7
2023-01-12T21:45:21.357Z,99451
2023-01-12T21:50:56.456Z,99472.5
2023-01-12T21:56:31.506Z,99471.1
2023-01-12T22:02:08.829Z,99469.1
2023-01-12T22:07:45.633Z,99474.9
2023-01-12T22:13:21.619Z,99469.4
2023-01-12T22:18:57.413Z,99480.3
2023-01-12T22:24:32.870Z,99486.9
2023-01-12T22:30:08.933Z,99494.5
2023-01-12T22:35:44.139Z,99488.4
2023-01-12T22:41:19.927Z,99490.3
2023-01-12T22:46:54.661Z,99487.2
2023-01-12T22:52:30.031Z,99510
2023-01-12T22:58:24.035Z,99508.2
2023-01-12T23:03:59.453Z,99517.7
2023-01-12T23:09:34.537Z,99520.2
2023-01-12T23:15:13.402Z,99500.3
2023-01-12T23:20:49.005Z,99500.7
2023-01-12T23:26:24.479Z,99484.9
2023-01-12T23:32:00.403Z,99491.6
2023-01-12T23:37:35.224Z,99482.3
2023-01-12T23:43:12.594Z,99476
2023-01-12T23:48:48.993Z,99443.7
2023-01-12T23:54:31.063Z,99455.8
